sensor_id;sensor_type;location;lat;lon;timestamp;P1;durP1;ratioP1;P2;durP2;ratioP2
12519;SDS011;6325;49.540;8.364;2023-10-19T00:01:25;9.88;;;9.05;;
12519;SDS011;6325;49.540;8.364;2023-10-19T00:03:53;10.63;;;9.73;;
12519;SDS011;6325;49.540;8.364;2023-10-19T00:06:21;10.15;;;9.25;;
12519;SDS011;6325;49.540;8.364;2023-10-19T00:08:48;10.43;;;9.52;;
12519;SDS011;6325;49.540;8.364;2023-10-19T00:11:17;10.18;;;9.27;;
12519;SDS011;6325;49.540;8.364;2023-10-19T00:13:49;9.63;;;8.82;;
12519;SDS011;6325;49.540;8.364;2023-10-19T00:16:15;9.50;;;8.70;;
12519;SDS011;6325;49.540;8.364;2023-10-19T00:18:42;9.32;;;8.52;;
12519;SDS011;6325;49.540;8.364;2023-10-19T00:21:08;9.35;;;8.55;;
12519;SDS011;6325;49.540;8.364;2023-10-19T00:23:44;10.20;;;9.30;;
12519;SDS011;6325;49.540;8.364;2023-10-19T00:26:12;9.75;;;8.85;;
12519;SDS011;6325;49.540;8.364;2023-10-19T00:28:43;9.70;;;8.80;;
12519;SDS011;6325;49.540;8.364;2023-10-19T00:31:13;10.20;;;9.30;;
12519;SDS011;6325;49.540;8.364;2023-10-19T00:33:40;9.67;;;8.87;;
12519;SDS011;6325;49.540;8.364;2023-10-19T00:36:07;9.23;;;8.43;;
12519;SDS011;6325;49.540;8.364;2023-10-19T00:38:38;9.90;;;9.00;;
12519;SDS011;6325;49.540;8.364;2023-10-19T00:41:07;9.73;;;8.93;;
12519;SDS011;6325;49.540;8.364;2023-10-19T00:43:46;9.57;;;8.67;;
12519;SDS011;6325;49.540;8.364;2023-10-19T00:46:14;8.57;;;7.80;;
12519;SDS011;6325;49.540;8.364;2023-10-19T00:48:47;9.05;;;8.25;;
12519;SDS011;6325;49.540;8.364;2023-10-19T00:51:16;8.87;;;8.07;;
12519;SDS011;6325;49.540;8.364;2023-10-19T00:54:04;9.70;;;8.90;;
12519;SDS011;6325;49.540;8.364;2023-10-19T00:56:35;9.23;;;8.43;;
12519;SDS011;6325;49.540;8.364;2023-10-19T00:59:07;9.80;;;8.82;;
12519;SDS011;6325;49.540;8.364;2023-10-19T01:01:39;9.27;;;8.48;;
12519;SDS011;6325;49.540;8.364;2023-10-19T01:04:09;9.30;;;8.50;;
12519;SDS011;6325;49.540;8.364;2023-10-19T01:06:39;9.23;;;8.43;;
12519;SDS011;6325;49.540;8.364;2023-10-19T01:09:08;10.10;;;9.20;;
12519;SDS011;6325;49.540;8.364;2023-10-19T01:11:37;9.60;;;8.80;;
12519;SDS011;6325;49.540;8.364;2023-10-19T01:14:19;9.23;;;8.43;;
12519;SDS011;6325;49.540;8.364;2023-10-19T01:16:47;9.18;;;8.38;;
12519;SDS011;6325;49.540;8.364;2023-10-19T01:19:14;8.90;;;8.10;;
12519;SDS011;6325;49.540;8.364;2023-10-19T01:21:43;9.32;;;8.52;;
12519;SDS011;6325;49.540;8.364;2023-10-19T01:24:17;9.48;;;8.68;;
12519;SDS011;6325;49.540;8.364;2023-10-19T01:26:51;9.68;;;8.77;;
12519;SDS011;6325;49.540;8.364;2023-10-19T01:29:18;9.23;;;8.43;;
12519;SDS011;6325;49.540;8.364;2023-10-19T01:31:51;8.82;;;8.02;;
12519;SDS011;6325;49.540;8.364;2023-10-19T01:34:21;8.93;;;8.13;;
12519;SDS011;6325;49.540;8.364;2023-10-19T01:36:48;9.27;;;8.48;;
12519;SDS011;6325;49.540;8.364;2023-10-19T01:39:17;9.27;;;8.40;;
12519;SDS011;6325;49.540;8.364;2023-10-19T01:41:44;8.90;;;8.10;;
12519;SDS011;6325;49.540;8.364;2023-10-19T01:44:11;9.60;;;8.80;;
12519;SDS011;6325;49.540;8.364;2023-10-19T01:46:38;9.13;;;8.32;;
12519;SDS011;6325;49.540;8.364;2023-10-19T01:49:08;9.20;;;8.40;;
12519;SDS011;6325;49.540;8.364;2023-10-19T01:51:35;9.23;;;8.32;;
12519;SDS011;6325;49.540;8.364;2023-10-19T01:54:03;9.17;;;8.37;;
12519;SDS011;6325;49.540;8.364;2023-10-19T01:56:31;9.15;;;8.35;;
12519;SDS011;6325;49.540;8.364;2023-10-19T01:59:00;9.00;;;8.20;;
12519;SDS011;6325;49.540;8.364;2023-10-19T02:01:26;9.02;;;8.23;;
12519;SDS011;6325;49.540;8.364;2023-10-19T02:03:58;8.70;;;8.00;;
12519;SDS011;6325;49.540;8.364;2023-10-19T02:06:25;8.85;;;8.05;;
12519;SDS011;6325;49.540;8.364;2023-10-19T02:08:55;8.55;;;7.85;;
12519;SDS011;6325;49.540;8.364;2023-10-19T02:11:25;8.77;;;7.97;;
12519;SDS011;6325;49.540;8.364;2023-10-19T02:13:55;8.85;;;8.10;;
12519;SDS011;6325;49.540;8.364;2023-10-19T02:16:25;9.57;;;8.68;;
12519;SDS011;6325;49.540;8.364;2023-10-19T02:18:54;8.88;;;8.07;;
12519;SDS011;6325;49.540;8.364;2023-10-19T02:21:21;9.13;;;8.33;;
12519;SDS011;6325;49.540;8.364;2023-10-19T02:23:52;9.25;;;8.45;;
12519;SDS011;6325;49.540;8.364;2023-10-19T02:26:18;9.05;;;8.25;;
12519;SDS011;6325;49.540;8.364;2023-10-19T02:28:47;9.27;;;8.48;;
12519;SDS011;6325;49.540;8.364;2023-10-19T02:31:17;9.10;;;8.30;;
12519;SDS011;6325;49.540;8.364;2023-10-19T02:33:46;9.57;;;8.68;;
12519;SDS011;6325;49.540;8.364;2023-10-19T02:36:17;9.23;;;8.43;;
12519;SDS011;6325;49.540;8.364;2023-10-19T02:38:44;9.27;;;8.48;;
12519;SDS011;6325;49.540;8.364;2023-10-19T02:41:13;9.10;;;8.30;;
12519;SDS011;6325;49.540;8.364;2023-10-19T02:43:42;9.30;;;8.48;;
12519;SDS011;6325;49.540;8.364;2023-10-19T02:46:11;9.57;;;8.77;;
12519;SDS011;6325;49.540;8.364;2023-10-19T02:48:39;9.17;;;8.37;;
12519;SDS011;6325;49.540;8.364;2023-10-19T02:51:09;9.07;;;8.27;;
12519;SDS011;6325;49.540;8.364;2023-10-19T02:53:36;9.60;;;8.80;;
12519;SDS011;6325;49.540;8.364;2023-10-19T02:56:09;9.50;;;8.60;;
12519;SDS011;6325;49.540;8.364;2023-10-19T02:58:36;9.98;;;9.07;;
12519;SDS011;6325;49.540;8.364;2023-10-19T03:01:10;10.32;;;9.32;;
12519;SDS011;6325;49.540;8.364;2023-10-19T03:03:37;9.80;;;8.90;;
12519;SDS011;6325;49.540;8.364;2023-10-19T03:06:08;9.32;;;8.43;;
12519;SDS011;6325;49.540;8.364;2023-10-19T03:08:35;9.73;;;8.82;;
12519;SDS011;6325;49.540;8.364;2023-10-19T03:11:01;9.40;;;8.60;;
12519;SDS011;6325;49.540;8.364;2023-10-19T03:13:29;10.07;;;9.15;;
12519;SDS011;6325;49.540;8.364;2023-10-19T03:15:56;9.43;;;8.63;;
12519;SDS011;6325;49.540;8.364;2023-10-19T03:18:22;9.00;;;8.20;;
12519;SDS011;6325;49.540;8.364;2023-10-19T03:20:52;9.60;;;8.70;;
12519;SDS011;6325;49.540;8.364;2023-10-19T03:23:17;9.40;;;8.60;;
12519;SDS011;6325;49.540;8.364;2023-10-19T03:25:45;9.52;;;8.63;;
12519;SDS011;6325;49.540;8.364;2023-10-19T03:28:20;10.35;;;9.25;;
12519;SDS011;6325;49.540;8.364;2023-10-19T03:30:50;9.45;;;8.60;;
12519;SDS011;6325;49.540;8.364;2023-10-19T03:33:16;9.00;;;8.20;;
12519;SDS011;6325;49.540;8.364;2023-10-19T03:35:43;9.55;;;8.70;;
12519;SDS011;6325;49.540;8.364;2023-10-19T03:38:12;9.40;;;8.60;;
12519;SDS011;6325;49.540;8.364;2023-10-19T03:40:41;9.82;;;8.93;;
12519;SDS011;6325;49.540;8.364;2023-10-19T03:43:16;9.32;;;8.52;;
12519;SDS011;6325;49.540;8.364;2023-10-19T03:45:46;9.90;;;9.00;;
12519;SDS011;6325;49.540;8.364;2023-10-19T03:48:17;10.27;;;9.30;;
12519;SDS011;6325;49.540;8.364;2023-10-19T03:50:51;9.50;;;8.55;;
12519;SDS011;6325;49.540;8.364;2023-10-19T03:53:21;10.23;;;9.32;;
12519;SDS011;6325;49.540;8.364;2023-10-19T03:55:49;9.07;;;8.27;;
12519;SDS011;6325;49.540;8.364;2023-10-19T03:58:16;8.82;;;8.10;;
12519;SDS011;6325;49.540;8.364;2023-10-19T04:00:45;9.38;;;8.52;;
12519;SDS011;6325;49.540;8.364;2023-10-19T04:03:13;9.55;;;8.65;;
12519;SDS011;6325;49.540;8.364;2023-10-19T04:05:40;10.13;;;9.20;;
12519;SDS011;6325;49.540;8.364;2023-10-19T04:08:08;10.25;;;9.30;;
12519;SDS011;6325;49.540;8.364;2023-10-19T04:10:41;10.05;;;9.10;;
12519;SDS011;6325;49.540;8.364;2023-10-19T04:13:14;10.65;;;9.75;;
12519;SDS011;6325;49.540;8.364;2023-10-19T04:15:42;10.90;;;9.90;;
12519;SDS011;6325;49.540;8.364;2023-10-19T04:18:10;10.15;;;9.15;;
12519;SDS011;6325;49.540;8.364;2023-10-19T04:20:37;9.55;;;8.68;;
12519;SDS011;6325;49.540;8.364;2023-10-19T04:23:21;11.27;;;10.20;;
12519;SDS011;6325;49.540;8.364;2023-10-19T04:25:53;10.68;;;9.68;;
12519;SDS011;6325;49.540;8.364;2023-10-19T04:28:23;10.35;;;9.45;;
12519;SDS011;6325;49.540;8.364;2023-10-19T04:30:57;10.52;;;9.63;;
12519;SDS011;6325;49.540;8.364;2023-10-19T04:33:27;10.50;;;9.50;;
12519;SDS011;6325;49.540;8.364;2023-10-19T04:35:54;10.93;;;9.90;;
12519;SDS011;6325;49.540;8.364;2023-10-19T04:38:25;10.40;;;9.50;;
12519;SDS011;6325;49.540;8.364;2023-10-19T04:41:06;10.57;;;9.68;;
12519;SDS011;6325;49.540;8.364;2023-10-19T04:43:33;11.18;;;10.07;;
12519;SDS011;6325;49.540;8.364;2023-10-19T04:46:03;11.50;;;10.40;;
12519;SDS011;6325;49.540;8.364;2023-10-19T04:48:35;11.60;;;10.50;;
12519;SDS011;6325;49.540;8.364;2023-10-19T04:51:02;11.82;;;10.73;;
12519;SDS011;6325;49.540;8.364;2023-10-19T04:53:30;11.80;;;10.60;;
12519;SDS011;6325;49.540;8.364;2023-10-19T04:55:57;11.45;;;10.35;;
12519;SDS011;6325;49.540;8.364;2023-10-19T04:58:26;11.90;;;10.75;;
12519;SDS011;6325;49.540;8.364;2023-10-19T05:00:53;11.57;;;10.47;;
12519;SDS011;6325;49.540;8.364;2023-10-19T05:03:20;11.60;;;10.60;;
12519;SDS011;6325;49.540;8.364;2023-10-19T05:05:47;11.45;;;10.38;;
12519;SDS011;6325;49.540;8.364;2023-10-19T05:08:14;10.52;;;9.48;;
12519;SDS011;6325;49.540;8.364;2023-10-19T05:10:40;11.30;;;10.30;;
12519;SDS011;6325;49.540;8.364;2023-10-19T05:13:07;11.48;;;10.48;;
12519;SDS011;6325;49.540;8.364;2023-10-19T05:15:36;11.90;;;10.80;;
12519;SDS011;6325;49.540;8.364;2023-10-19T05:18:04;10.85;;;9.95;;
12519;SDS011;6325;49.540;8.364;2023-10-19T05:20:31;10.88;;;9.88;;
12519;SDS011;6325;49.540;8.364;2023-10-19T05:22:58;10.90;;;9.90;;
12519;SDS011;6325;49.540;8.364;2023-10-19T05:25:25;11.20;;;10.10;;
12519;SDS011;6325;49.540;8.364;2023-10-19T05:27:52;10.57;;;9.68;;
12519;SDS011;6325;49.540;8.364;2023-10-19T05:30:19;10.57;;;9.67;;
12519;SDS011;6325;49.540;8.364;2023-10-19T05:32:48;10.63;;;9.63;;
12519;SDS011;6325;49.540;8.364;2023-10-19T05:35:17;10.25;;;9.35;;
12519;SDS011;6325;49.540;8.364;2023-10-19T05:37:48;9.60;;;8.80;;
12519;SDS011;6325;49.540;8.364;2023-10-19T05:40:15;9.80;;;9.00;;
12519;SDS011;6325;49.540;8.364;2023-10-19T05:42:43;9.50;;;8.70;;
12519;SDS011;6325;49.540;8.364;2023-10-19T05:45:11;9.43;;;8.55;;
12519;SDS011;6325;49.540;8.364;2023-10-19T05:47:41;9.90;;;9.02;;
12519;SDS011;6325;49.540;8.364;2023-10-19T05:50:10;9.15;;;8.35;;
12519;SDS011;6325;49.540;8.364;2023-10-19T05:52:39;8.50;;;7.80;;
12519;SDS011;6325;49.540;8.364;2023-10-19T05:55:07;8.75;;;8.05;;
12519;SDS011;6325;49.540;8.364;2023-10-19T05:57:35;8.98;;;8.27;;
12519;SDS011;6325;49.540;8.364;2023-10-19T06:00:05;8.50;;;7.70;;
12519;SDS011;6325;49.540;8.364;2023-10-19T06:02:37;8.43;;;7.72;;
12519;SDS011;6325;49.540;8.364;2023-10-19T06:05:05;8.32;;;7.63;;
12519;SDS011;6325;49.540;8.364;2023-10-19T06:07:34;8.93;;;8.13;;
12519;SDS011;6325;49.540;8.364;2023-10-19T06:10:00;9.37;;;8.57;;
12519;SDS011;6325;49.540;8.364;2023-10-19T06:12:29;9.43;;;8.63;;
12519;SDS011;6325;49.540;8.364;2023-10-19T06:14:56;8.90;;;8.20;;
12519;SDS011;6325;49.540;8.364;2023-10-19T06:17:23;9.20;;;8.40;;
12519;SDS011;6325;49.540;8.364;2023-10-19T06:19:50;8.77;;;8.07;;
12519;SDS011;6325;49.540;8.364;2023-10-19T06:22:17;9.23;;;8.38;;
12519;SDS011;6325;49.540;8.364;2023-10-19T06:24:45;8.82;;;8.02;;
12519;SDS011;6325;49.540;8.364;2023-10-19T06:27:12;8.70;;;8.00;;
12519;SDS011;6325;49.540;8.364;2023-10-19T06:29:39;8.88;;;8.07;;
12519;SDS011;6325;49.540;8.364;2023-10-19T06:32:05;8.98;;;8.27;;
12519;SDS011;6325;49.540;8.364;2023-10-19T06:34:32;8.43;;;7.72;;
12519;SDS011;6325;49.540;8.364;2023-10-19T06:37:00;8.90;;;8.10;;
12519;SDS011;6325;49.540;8.364;2023-10-19T06:39:28;8.32;;;7.63;;
12519;SDS011;6325;49.540;8.364;2023-10-19T06:41:57;8.47;;;7.77;;
12519;SDS011;6325;49.540;8.364;2023-10-19T06:44:23;8.27;;;7.57;;
12519;SDS011;6325;49.540;8.364;2023-10-19T06:46:50;8.10;;;7.43;;
12519;SDS011;6325;49.540;8.364;2023-10-19T06:49:17;8.05;;;7.40;;
12519;SDS011;6325;49.540;8.364;2023-10-19T06:51:44;8.80;;;8.00;;
12519;SDS011;6325;49.540;8.364;2023-10-19T06:54:11;7.63;;;7.03;;
12519;SDS011;6325;49.540;8.364;2023-10-19T06:56:38;8.13;;;7.43;;
12519;SDS011;6325;49.540;8.364;2023-10-19T06:59:07;7.45;;;6.85;;
12519;SDS011;6325;49.540;8.364;2023-10-19T07:01:34;8.20;;;7.50;;
12519;SDS011;6325;49.540;8.364;2023-10-19T07:04:01;8.00;;;7.20;;
12519;SDS011;6325;49.540;8.364;2023-10-19T07:06:28;8.40;;;7.60;;
12519;SDS011;6325;49.540;8.364;2023-10-19T07:08:55;8.27;;;7.50;;
12519;SDS011;6325;49.540;8.364;2023-10-19T07:11:23;8.40;;;7.60;;
12519;SDS011;6325;49.540;8.364;2023-10-19T07:13:50;7.88;;;7.20;;
12519;SDS011;6325;49.540;8.364;2023-10-19T07:16:18;8.13;;;7.45;;
12519;SDS011;6325;49.540;8.364;2023-10-19T07:18:45;8.02;;;7.32;;
12519;SDS011;6325;49.540;8.364;2023-10-19T07:21:12;7.88;;;7.25;;
12519;SDS011;6325;49.540;8.364;2023-10-19T07:23:38;8.07;;;7.38;;
12519;SDS011;6325;49.540;8.364;2023-10-19T07:26:05;8.10;;;7.40;;
12519;SDS011;6325;49.540;8.364;2023-10-19T07:28:32;8.50;;;7.70;;
12519;SDS011;6325;49.540;8.364;2023-10-19T07:31:00;7.97;;;7.27;;
12519;SDS011;6325;49.540;8.364;2023-10-19T07:33:29;7.57;;;6.97;;
12519;SDS011;6325;49.540;8.364;2023-10-19T07:35:56;7.82;;;7.13;;
12519;SDS011;6325;49.540;8.364;2023-10-19T07:38:25;7.90;;;7.20;;
12519;SDS011;6325;49.540;8.364;2023-10-19T07:40:53;8.35;;;7.55;;
12519;SDS011;6325;49.540;8.364;2023-10-19T07:43:20;7.15;;;6.57;;
12519;SDS011;6325;49.540;8.364;2023-10-19T07:45:47;7.63;;;6.97;;
12519;SDS011;6325;49.540;8.364;2023-10-19T07:48:14;8.40;;;7.60;;
12519;SDS011;6325;49.540;8.364;2023-10-19T07:50:43;7.65;;;6.88;;
12519;SDS011;6325;49.540;8.364;2023-10-19T07:53:10;8.00;;;7.20;;
12519;SDS011;6325;49.540;8.364;2023-10-19T07:55:37;7.45;;;6.75;;
12519;SDS011;6325;49.540;8.364;2023-10-19T07:58:04;8.20;;;7.40;;
12519;SDS011;6325;49.540;8.364;2023-10-19T08:00:32;7.90;;;7.20;;
12519;SDS011;6325;49.540;8.364;2023-10-19T08:03:00;8.30;;;7.60;;
12519;SDS011;6325;49.540;8.364;2023-10-19T08:05:27;7.60;;;6.97;;
12519;SDS011;6325;49.540;8.364;2023-10-19T08:07:55;8.52;;;7.72;;
12519;SDS011;6325;49.540;8.364;2023-10-19T08:10:23;7.93;;;7.22;;
12519;SDS011;6325;49.540;8.364;2023-10-19T08:12:52;7.70;;;7.10;;
12519;SDS011;6325;49.540;8.364;2023-10-19T08:15:20;7.20;;;6.63;;
12519;SDS011;6325;49.540;8.364;2023-10-19T08:17:47;8.10;;;7.40;;
12519;SDS011;6325;49.540;8.364;2023-10-19T08:20:15;7.72;;;7.07;;
12519;SDS011;6325;49.540;8.364;2023-10-19T08:22:48;8.20;;;7.45;;
12519;SDS011;6325;49.540;8.364;2023-10-19T08:25:16;8.55;;;7.68;;
12519;SDS011;6325;49.540;8.364;2023-10-19T08:27:43;7.50;;;6.90;;
12519;SDS011;6325;49.540;8.364;2023-10-19T08:30:13;7.63;;;6.93;;
12519;SDS011;6325;49.540;8.364;2023-10-19T08:32:42;7.50;;;6.90;;
12519;SDS011;6325;49.540;8.364;2023-10-19T08:35:13;7.45;;;6.78;;
12519;SDS011;6325;49.540;8.364;2023-10-19T08:37:40;8.07;;;7.38;;
12519;SDS011;6325;49.540;8.364;2023-10-19T08:40:07;7.70;;;7.10;;
12519;SDS011;6325;49.540;8.364;2023-10-19T08:42:41;7.40;;;6.80;;
12519;SDS011;6325;49.540;8.364;2023-10-19T08:45:08;8.00;;;7.30;;
12519;SDS011;6325;49.540;8.364;2023-10-19T08:47:37;7.77;;;7.07;;
12519;SDS011;6325;49.540;8.364;2023-10-19T08:50:09;7.28;;;6.63;;
12519;SDS011;6325;49.540;8.364;2023-10-19T08:52:37;7.50;;;6.80;;
12519;SDS011;6325;49.540;8.364;2023-10-19T08:55:06;7.75;;;7.05;;
12519;SDS011;6325;49.540;8.364;2023-10-19T08:57:35;7.85;;;7.15;;
12519;SDS011;6325;49.540;8.364;2023-10-19T09:00:05;8.10;;;7.30;;
12519;SDS011;6325;49.540;8.364;2023-10-19T09:02:34;7.67;;;6.97;;
12519;SDS011;6325;49.540;8.364;2023-10-19T09:05:05;7.55;;;6.88;;
12519;SDS011;6325;49.540;8.364;2023-10-19T09:07:32;7.57;;;6.88;;
12519;SDS011;6325;49.540;8.364;2023-10-19T09:10:00;7.50;;;6.80;;
12519;SDS011;6325;49.540;8.364;2023-10-19T09:12:28;7.67;;;6.97;;
12519;SDS011;6325;49.540;8.364;2023-10-19T09:14:55;7.15;;;6.55;;
12519;SDS011;6325;49.540;8.364;2023-10-19T09:17:28;7.57;;;6.90;;
12519;SDS011;6325;49.540;8.364;2023-10-19T09:19:57;7.22;;;6.53;;
12519;SDS011;6325;49.540;8.364;2023-10-19T09:22:24;8.02;;;6.95;;
12519;SDS011;6325;49.540;8.364;2023-10-19T09:24:52;7.10;;;6.50;;
12519;SDS011;6325;49.540;8.364;2023-10-19T09:27:20;7.03;;;6.47;;
12519;SDS011;6325;49.540;8.364;2023-10-19T09:29:47;7.68;;;6.97;;
12519;SDS011;6325;49.540;8.364;2023-10-19T09:32:16;7.78;;;6.85;;
12519;SDS011;6325;49.540;8.364;2023-10-19T09:34:45;6.78;;;6.18;;
12519;SDS011;6325;49.540;8.364;2023-10-19T09:37:14;7.70;;;7.00;;
12519;SDS011;6325;49.540;8.364;2023-10-19T09:39:43;7.25;;;6.55;;
12519;SDS011;6325;49.540;8.364;2023-10-19T09:42:10;7.45;;;6.82;;
12519;SDS011;6325;49.540;8.364;2023-10-19T09:44:42;6.80;;;6.20;;
12519;SDS011;6325;49.540;8.364;2023-10-19T09:47:10;6.63;;;6.10;;
12519;SDS011;6325;49.540;8.364;2023-10-19T09:49:40;6.43;;;5.93;;
12519;SDS011;6325;49.540;8.364;2023-10-19T09:52:09;6.70;;;6.10;;
12519;SDS011;6325;49.540;8.364;2023-10-19T09:54:42;6.35;;;5.78;;
12519;SDS011;6325;49.540;8.364;2023-10-19T09:57:18;6.30;;;5.73;;
12519;SDS011;6325;49.540;8.364;2023-10-19T09:59:54;6.10;;;5.55;;
12519;SDS011;6325;49.540;8.364;2023-10-19T10:02:32;6.45;;;5.75;;
12519;SDS011;6325;49.540;8.364;2023-10-19T10:04:59;6.10;;;5.57;;
12519;SDS011;6325;49.540;8.364;2023-10-19T10:07:27;5.63;;;5.13;;
12519;SDS011;6325;49.540;8.364;2023-10-19T10:09:53;6.15;;;5.55;;
12519;SDS011;6325;49.540;8.364;2023-10-19T10:12:21;6.03;;;5.53;;
12519;SDS011;6325;49.540;8.364;2023-10-19T10:14:52;6.03;;;5.53;;
12519;SDS011;6325;49.540;8.364;2023-10-19T10:17:22;6.00;;;5.50;;
12519;SDS011;6325;49.540;8.364;2023-10-19T10:19:52;5.97;;;5.47;;
12519;SDS011;6325;49.540;8.364;2023-10-19T10:22:21;6.35;;;5.75;;
12519;SDS011;6325;49.540;8.364;2023-10-19T10:24:54;6.95;;;6.35;;
12519;SDS011;6325;49.540;8.364;2023-10-19T10:27:22;6.75;;;6.15;;
12519;SDS011;6325;49.540;8.364;2023-10-19T10:29:54;6.25;;;5.65;;
12519;SDS011;6325;49.540;8.364;2023-10-19T10:38:12;6.60;;;6.00;;
12519;SDS011;6325;49.540;8.364;2023-10-19T10:40:44;6.25;;;5.65;;
12519;SDS011;6325;49.540;8.364;2023-10-19T10:43:12;6.10;;;5.60;;
12519;SDS011;6325;49.540;8.364;2023-10-19T10:45:40;6.50;;;5.90;;
12519;SDS011;6325;49.540;8.364;2023-10-19T10:48:11;6.65;;;6.05;;
12519;SDS011;6325;49.540;8.364;2023-10-19T10:50:38;6.22;;;5.72;;
12519;SDS011;6325;49.540;8.364;2023-10-19T10:53:06;6.70;;;6.00;;
12519;SDS011;6325;49.540;8.364;2023-10-19T10:55:33;5.63;;;5.13;;
12519;SDS011;6325;49.540;8.364;2023-10-19T10:58:01;6.65;;;6.05;;
12519;SDS011;6325;49.540;8.364;2023-10-19T11:00:28;6.57;;;5.93;;
12519;SDS011;6325;49.540;8.364;2023-10-19T11:03:01;6.65;;;6.05;;
12519;SDS011;6325;49.540;8.364;2023-10-19T11:05:29;6.00;;;5.50;;
12519;SDS011;6325;49.540;8.364;2023-10-19T11:08:07;5.90;;;5.40;;
12519;SDS011;6325;49.540;8.364;2023-10-19T11:10:38;5.90;;;5.40;;
12519;SDS011;6325;49.540;8.364;2023-10-19T11:13:09;6.10;;;5.50;;
12519;SDS011;6325;49.540;8.364;2023-10-19T11:15:38;6.60;;;6.00;;
12519;SDS011;6325;49.540;8.364;2023-10-19T11:18:27;7.22;;;6.53;;
12519;SDS011;6325;49.540;8.364;2023-10-19T11:20:54;6.93;;;6.33;;
12519;SDS011;6325;49.540;8.364;2023-10-19T11:23:34;6.70;;;6.10;;
12519;SDS011;6325;49.540;8.364;2023-10-19T11:26:01;7.90;;;7.20;;
12519;SDS011;6325;49.540;8.364;2023-10-19T11:28:31;6.78;;;6.22;;
12519;SDS011;6325;49.540;8.364;2023-10-19T11:31:10;7.20;;;6.60;;
12519;SDS011;6325;49.540;8.364;2023-10-19T11:33:37;7.30;;;6.70;;
12519;SDS011;6325;49.540;8.364;2023-10-19T11:36:05;6.78;;;6.18;;
12519;SDS011;6325;49.540;8.364;2023-10-19T11:38:31;6.80;;;6.20;;
12519;SDS011;6325;49.540;8.364;2023-10-19T11:40:58;6.53;;;6.03;;
12519;SDS011;6325;49.540;8.364;2023-10-19T11:43:25;7.00;;;6.30;;
12519;SDS011;6325;49.540;8.364;2023-10-19T11:45:53;6.70;;;6.07;;
12519;SDS011;6325;49.540;8.364;2023-10-19T11:48:20;6.97;;;6.38;;
12519;SDS011;6325;49.540;8.364;2023-10-19T11:50:47;6.85;;;6.25;;
12519;SDS011;6325;49.540;8.364;2023-10-19T11:53:14;7.20;;;6.60;;
12519;SDS011;6325;49.540;8.364;2023-10-19T11:55:40;7.32;;;6.63;;
12519;SDS011;6325;49.540;8.364;2023-10-19T11:58:07;7.05;;;6.45;;
12519;SDS011;6325;49.540;8.364;2023-10-19T12:00:36;6.75;;;6.15;;
12519;SDS011;6325;49.540;8.364;2023-10-19T12:03:05;6.07;;;5.57;;
12519;SDS011;6325;49.540;8.364;2023-10-19T12:05:32;5.45;;;4.95;;
12519;SDS011;6325;49.540;8.364;2023-10-19T12:08:02;5.10;;;4.70;;
12519;SDS011;6325;49.540;8.364;2023-10-19T12:10:29;4.80;;;4.40;;
12519;SDS011;6325;49.540;8.364;2023-10-19T12:13:00;4.47;;;4.07;;
12519;SDS011;6325;49.540;8.364;2023-10-19T12:15:27;4.18;;;3.88;;
12519;SDS011;6325;49.540;8.364;2023-10-19T12:17:56;4.63;;;4.22;;
12519;SDS011;6325;49.540;8.364;2023-10-19T12:20:24;4.60;;;4.20;;
12519;SDS011;6325;49.540;8.364;2023-10-19T12:22:51;4.80;;;4.30;;
12519;SDS011;6325;49.540;8.364;2023-10-19T12:25:19;5.38;;;4.80;;
12519;SDS011;6325;49.540;8.364;2023-10-19T12:27:46;5.00;;;4.50;;
12519;SDS011;6325;49.540;8.364;2023-10-19T12:30:13;4.90;;;4.50;;
12519;SDS011;6325;49.540;8.364;2023-10-19T12:32:45;4.75;;;4.35;;
12519;SDS011;6325;49.540;8.364;2023-10-19T12:35:14;5.15;;;4.65;;
12519;SDS011;6325;49.540;8.364;2023-10-19T12:37:46;5.13;;;4.73;;
12519;SDS011;6325;49.540;8.364;2023-10-19T12:40:16;4.72;;;4.32;;
12519;SDS011;6325;49.540;8.364;2023-10-19T12:42:59;6.15;;;5.65;;
12519;SDS011;6325;49.540;8.364;2023-10-19T12:45:28;6.03;;;5.43;;
12519;SDS011;6325;49.540;8.364;2023-10-19T12:48:02;7.00;;;6.40;;
12519;SDS011;6325;49.540;8.364;2023-10-19T12:50:29;6.70;;;6.10;;
12519;SDS011;6325;49.540;8.364;2023-10-19T12:52:58;7.57;;;6.97;;
12519;SDS011;6325;49.540;8.364;2023-10-19T12:55:25;8.05;;;7.25;;
12519;SDS011;6325;49.540;8.364;2023-10-19T12:57:52;8.70;;;7.80;;
12519;SDS011;6325;49.540;8.364;2023-10-19T13:00:21;9.18;;;8.38;;
12519;SDS011;6325;49.540;8.364;2023-10-19T13:02:54;9.02;;;8.13;;
12519;SDS011;6325;49.540;8.364;2023-10-19T13:05:25;9.10;;;8.20;;
12519;SDS011;6325;49.540;8.364;2023-10-19T13:07:52;8.90;;;8.10;;
12519;SDS011;6325;49.540;8.364;2023-10-19T13:10:24;7.87;;;7.17;;
12519;SDS011;6325;49.540;8.364;2023-10-19T13:12:57;7.95;;;7.25;;
12519;SDS011;6325;49.540;8.364;2023-10-19T13:15:25;8.00;;;7.20;;
12519;SDS011;6325;49.540;8.364;2023-10-19T13:17:56;7.38;;;6.53;;
12519;SDS011;6325;49.540;8.364;2023-10-19T13:20:23;6.10;;;5.60;;
12519;SDS011;6325;49.540;8.364;2023-10-19T13:22:51;6.10;;;5.60;;
12519;SDS011;6325;49.540;8.364;2023-10-19T13:25:17;5.65;;;5.15;;
12519;SDS011;6325;49.540;8.364;2023-10-19T13:27:55;5.60;;;5.10;;
12519;SDS011;6325;49.540;8.364;2023-10-19T13:30:21;5.47;;;4.97;;
12519;SDS011;6325;49.540;8.364;2023-10-19T13:32:48;5.63;;;5.20;;
12519;SDS011;6325;49.540;8.364;2023-10-19T13:35:15;5.93;;;5.40;;
12519;SDS011;6325;49.540;8.364;2023-10-19T13:37:42;5.63;;;5.05;;
12519;SDS011;6325;49.540;8.364;2023-10-19T13:40:10;5.32;;;4.85;;
12519;SDS011;6325;49.540;8.364;2023-10-19T13:42:36;4.70;;;4.30;;
12519;SDS011;6325;49.540;8.364;2023-10-19T13:45:05;5.10;;;4.70;;
12519;SDS011;6325;49.540;8.364;2023-10-19T13:47:37;4.63;;;4.22;;
12519;SDS011;6325;49.540;8.364;2023-10-19T13:50:04;4.63;;;4.22;;
12519;SDS011;6325;49.540;8.364;2023-10-19T13:52:32;4.70;;;4.30;;
12519;SDS011;6325;49.540;8.364;2023-10-19T13:55:01;4.80;;;4.40;;
12519;SDS011;6325;49.540;8.364;2023-10-19T13:57:28;4.60;;;4.20;;
12519;SDS011;6325;49.540;8.364;2023-10-19T13:59:55;4.77;;;4.33;;
12519;SDS011;6325;49.540;8.364;2023-10-19T14:02:23;4.77;;;4.37;;
12519;SDS011;6325;49.540;8.364;2023-10-19T14:04:50;4.72;;;4.32;;
12519;SDS011;6325;49.540;8.364;2023-10-19T14:07:18;4.35;;;4.05;;
12519;SDS011;6325;49.540;8.364;2023-10-19T14:09:45;4.60;;;4.25;;
12519;SDS011;6325;49.540;8.364;2023-10-19T14:12:12;4.70;;;4.30;;
12519;SDS011;6325;49.540;8.364;2023-10-19T14:14:39;4.28;;;3.88;;
12519;SDS011;6325;49.540;8.364;2023-10-19T14:17:06;4.45;;;4.03;;
12519;SDS011;6325;49.540;8.364;2023-10-19T14:19:34;4.72;;;4.32;;
12519;SDS011;6325;49.540;8.364;2023-10-19T14:22:00;4.38;;;4.03;;
12519;SDS011;6325;49.540;8.364;2023-10-19T14:24:27;4.30;;;3.90;;
12519;SDS011;6325;49.540;8.364;2023-10-19T14:26:54;4.00;;;3.60;;
12519;SDS011;6325;49.540;8.364;2023-10-19T14:29:21;4.20;;;3.90;;
12519;SDS011;6325;49.540;8.364;2023-10-19T14:31:48;4.40;;;4.00;;
12519;SDS011;6325;49.540;8.364;2023-10-19T14:34:14;4.28;;;3.88;;
12519;SDS011;6325;49.540;8.364;2023-10-19T14:36:44;4.10;;;3.70;;
12519;SDS011;6325;49.540;8.364;2023-10-19T14:39:10;4.32;;;3.97;;
12519;SDS011;6325;49.540;8.364;2023-10-19T14:41:40;4.03;;;3.72;;
12519;SDS011;6325;49.540;8.364;2023-10-19T14:44:07;4.55;;;4.05;;
12519;SDS011;6325;49.540;8.364;2023-10-19T14:46:34;4.78;;;4.30;;
12519;SDS011;6325;49.540;8.364;2023-10-19T14:49:01;4.25;;;3.95;;
12519;SDS011;6325;49.540;8.364;2023-10-19T14:51:28;4.15;;;3.85;;
12519;SDS011;6325;49.540;8.364;2023-10-19T14:53:56;4.53;;;4.20;;
12519;SDS011;6325;49.540;8.364;2023-10-19T14:56:23;4.25;;;3.95;;
12519;SDS011;6325;49.540;8.364;2023-10-19T14:58:49;4.82;;;4.43;;
12519;SDS011;6325;49.540;8.364;2023-10-19T15:01:21;4.87;;;4.47;;
12519;SDS011;6325;49.540;8.364;2023-10-19T15:03:50;4.72;;;4.32;;
12519;SDS011;6325;49.540;8.364;2023-10-19T15:06:17;4.82;;;4.43;;
12519;SDS011;6325;49.540;8.364;2023-10-19T15:08:44;5.13;;;4.70;;
12519;SDS011;6325;49.540;8.364;2023-10-19T15:11:15;4.90;;;4.50;;
12519;SDS011;6325;49.540;8.364;2023-10-19T15:13:42;4.93;;;4.53;;